Portada
METAR-TAF:

METAR-TAF

Aeropuertos :

Aeropuerto de Logroño-Agoncillo

Logroño, España

latitud: 42-27N, longitud: 002-20W, altitud: 353 m

Observación

El informe se hizo hace 22 minutos, a las 01:30 UTC
Viento 9 kt del este-noreste, variando entre noreste y este
Temperatura 6°C
Humedad 87%
Presión 1021 hPa
Visibilidad 10 km o más
sin nubes por debajo de 1500 m y sin presencia de cumulonimbus.

METAR: LELO 240130Z AUTO 07009KT 040V100 CAVOK 06/04 Q1021

Hora: 02:52 (01:52 UTC)

Pronóstico

El informe se hizo hace 8 horas y 52 minutos, a las 17:00 UTC
Pronóstico válido del 23 a las 18 UTC al 24 a las 03 UTC
Viento 8 kt del este
Visibilidad 10 km o más
Nubes dispersas a una altura de 1500 ft
Nubes dispersas a una altura de 2500 ft
Evolucionando progresivamente
del 24 a las 01 UTC al 24 a las 03 UTC
Visibilidad: 3000 m
neblina

TAF: LELO 231700Z 2318/2403 09008KT 9999 SCT015 SCT025 BECMG 2401/2403 3000 BR

Observaciones y pronósticos meteorológicos de más de 4000 aeropuertos (mensajes METAR y TAF).

Los puntos amarillos y rojos representan las estaciones disponibles.

Ponga el ratón en el punto deseado para ver el nombre de la estación.

Haga clic para ver las observaciones y los pronósticos meteorológicos.

Para cambiar el mapa : haga clic en los botones verdes con una cruz de color negro para hacer un zoom, en el botón verde con un guión para alejar o en las flechas verdes para mapas adyacentes.


METAR-TAF: